createdAt,value
2023-08-27T00:00:58.188Z,14.90
2023-08-27T00:03:25.486Z,14.85
2023-08-27T00:05:52.325Z,14.80
2023-08-27T00:08:19.036Z,14.77
2023-08-27T00:10:45.777Z,14.80
2023-08-27T00:13:12.543Z,14.78
2023-08-27T00:15:45.477Z,14.74
2023-08-27T00:18:11.905Z,14.63
2023-08-27T00:20:38.355Z,14.53
2023-08-27T00:23:05.048Z,14.52
2023-08-27T00:25:32.050Z,14.54
2023-08-27T00:27:58.791Z,14.42
2023-08-27T00:30:25.503Z,14.46
2023-08-27T00:32:52.180Z,14.45
2023-08-27T00:35:20.988Z,14.38
2023-08-27T00:37:50.161Z,14.33
2023-08-27T00:40:17.010Z,14.27
2023-08-27T00:42:43.675Z,14.20
2023-08-27T00:45:11.428Z,14.17
2023-08-27T00:47:39.760Z,14.14
2023-08-27T00:50:11.692Z,14.08
2023-08-27T00:52:39.376Z,14.10
2023-08-27T00:55:06.572Z,14.01
2023-08-27T00:57:35.960Z,14.01
2023-08-27T01:00:02.986Z,14.04
2023-08-27T01:02:30.269Z,13.95
2023-08-27T01:04:57.066Z,13.92
2023-08-27T01:07:43.034Z,13.88
2023-08-27T01:10:22.375Z,13.86
2023-08-27T01:13:02.081Z,13.80
2023-08-27T01:15:30.443Z,13.84
2023-08-27T01:18:00.508Z,13.89
2023-08-27T01:20:27.783Z,13.88
2023-08-27T01:22:55.745Z,13.89
2023-08-27T01:25:25.830Z,13.91
2023-08-27T01:27:56.835Z,13.90
2023-08-27T01:30:37.710Z,13.91
2023-08-27T01:33:09.683Z,13.93
2023-08-27T01:35:38.641Z,14.00
2023-08-27T01:38:05.672Z,14.02
2023-08-27T01:40:33.013Z,14.01
2023-08-27T01:42:59.661Z,14.04
2023-08-27T01:45:26.760Z,14.04
2023-08-27T01:47:53.404Z,14.09
2023-08-27T01:50:19.915Z,14.12
2023-08-27T01:52:46.630Z,14.12
2023-08-27T01:55:13.122Z,14.16
2023-08-27T01:57:39.844Z,14.19
2023-08-27T02:00:10.261Z,14.23
2023-08-27T02:02:37.459Z,14.21
2023-08-27T02:05:05.096Z,14.25
2023-08-27T02:07:32.678Z,14.24
2023-08-27T02:09:59.371Z,14.25
2023-08-27T02:12:28.088Z,14.19
2023-08-27T02:14:54.802Z,14.17
2023-08-27T02:17:21.561Z,14.11
2023-08-27T02:19:48.327Z,14.08
2023-08-27T02:22:15.008Z,14.00
2023-08-27T02:24:41.746Z,14.03
2023-08-27T02:27:08.498Z,14.06
2023-08-27T02:29:36.462Z,14.06
2023-08-27T02:32:03.785Z,14.01
2023-08-27T02:34:30.870Z,13.97
2023-08-27T02:36:57.364Z,13.93
2023-08-27T02:39:25.479Z,13.92
2023-08-27T02:41:53.000Z,13.94
2023-08-27T02:44:19.514Z,13.89
2023-08-27T02:46:45.891Z,13.87
2023-08-27T02:49:12.589Z,13.86
2023-08-27T02:51:39.416Z,13.85
2023-08-27T02:54:05.989Z,13.84
2023-08-27T02:56:32.424Z,13.79
2023-08-27T02:58:59.980Z,13.77
2023-08-27T03:01:27.090Z,13.81
2023-08-27T03:03:53.585Z,13.80
2023-08-27T03:06:20.904Z,13.79
2023-08-27T03:08:47.478Z,13.71
2023-08-27T03:11:14.286Z,13.71
2023-08-27T03:13:40.914Z,13.67
2023-08-27T03:16:07.718Z,13.69
2023-08-27T03:18:34.507Z,13.63
2023-08-27T03:21:00.991Z,13.66
2023-08-27T03:23:27.725Z,13.65
2023-08-27T03:25:54.438Z,13.56
2023-08-27T03:28:21.152Z,13.54
2023-08-27T03:30:48.357Z,13.54
2023-08-27T03:33:15.161Z,13.50
2023-08-27T03:35:41.931Z,13.45
2023-08-27T03:38:08.375Z,13.41
2023-08-27T03:40:34.848Z,13.39
2023-08-27T03:43:01.840Z,13.38
2023-08-27T03:45:28.736Z,13.37
2023-08-27T03:47:55.214Z,13.36
2023-08-27T03:50:23.268Z,13.37
2023-08-27T03:52:49.848Z,13.32
2023-08-27T03:55:19.080Z,13.34
2023-08-27T03:57:46.049Z,13.34
2023-08-27T04:00:13.441Z,13.30
2023-08-27T04:02:39.933Z,13.26
2023-08-27T04:05:06.978Z,13.29
2023-08-27T04:07:33.690Z,13.27
2023-08-27T04:10:00.418Z,13.24
2023-08-27T04:12:27.989Z,13.28
2023-08-27T04:14:54.701Z,13.31
2023-08-27T04:17:21.926Z,13.32
2023-08-27T04:19:52.773Z,13.33
2023-08-27T04:22:19.701Z,13.34
2023-08-27T04:24:46.304Z,13.35
2023-08-27T04:27:13.269Z,13.35
2023-08-27T04:29:39.793Z,13.34
2023-08-27T04:32:08.413Z,13.36
2023-08-27T04:34:35.121Z,13.41
2023-08-27T04:37:01.856Z,13.42
2023-08-27T04:39:29.908Z,13.42
2023-08-27T04:41:57.409Z,13.45
2023-08-27T04:44:24.244Z,13.48
2023-08-27T04:46:50.903Z,13.50
2023-08-27T04:49:17.424Z,13.54
2023-08-27T04:51:44.122Z,13.56
2023-08-27T04:54:10.885Z,13.60
2023-08-27T04:56:37.608Z,13.65
2023-08-27T04:59:04.376Z,13.71
2023-08-27T05:01:30.923Z,13.76
2023-08-27T05:03:58.195Z,13.81
2023-08-27T05:06:24.906Z,13.84
2023-08-27T05:08:52.793Z,13.89
2023-08-27T05:11:19.532Z,13.90
2023-08-27T05:13:46.214Z,13.91
2023-08-27T05:16:12.695Z,13.93
2023-08-27T05:18:39.497Z,14.02
2023-08-27T05:21:06.291Z,14.08
2023-08-27T05:23:32.748Z,14.10
2023-08-27T05:25:59.515Z,14.15
2023-08-27T05:28:26.022Z,14.17
2023-08-27T05:30:52.778Z,14.21
2023-08-27T05:33:19.662Z,14.28
2023-08-27T05:35:46.334Z,14.35
2023-08-27T05:38:13.563Z,14.41
2023-08-27T05:40:42.582Z,14.47
2023-08-27T05:43:09.265Z,14.50
2023-08-27T05:45:36.123Z,14.54
2023-08-27T05:48:04.313Z,14.60
2023-08-27T05:50:34.228Z,14.69
2023-08-27T05:53:02.375Z,14.75
2023-08-27T05:55:29.129Z,14.85
2023-08-27T05:57:55.848Z,14.89
2023-08-27T06:00:22.802Z,14.94
2023-08-27T06:02:52.008Z,15.01
2023-08-27T06:05:18.744Z,15.04
2023-08-27T06:07:45.483Z,15.10
2023-08-27T06:10:11.945Z,15.16
2023-08-27T06:12:38.335Z,15.25
2023-08-27T06:15:05.478Z,15.32
2023-08-27T06:17:32.164Z,15.41
2023-08-27T06:19:59.141Z,15.46
2023-08-27T06:22:26.055Z,15.56
2023-08-27T06:24:52.606Z,15.63
2023-08-27T06:27:20.917Z,15.68
2023-08-27T06:29:47.704Z,15.78
2023-08-27T06:32:15.618Z,15.84
2023-08-27T06:34:43.298Z,15.89
2023-08-27T06:37:10.005Z,15.95
2023-08-27T06:39:36.791Z,15.99
2023-08-27T06:42:03.340Z,16.04
2023-08-27T06:44:30.163Z,16.08
2023-08-27T06:46:56.733Z,16.18
2023-08-27T06:49:23.174Z,16.25
2023-08-27T06:51:49.832Z,16.27
2023-08-27T06:54:16.593Z,16.30
2023-08-27T06:56:43.112Z,16.34
2023-08-27T06:59:10.215Z,16.42
2023-08-27T07:01:36.900Z,16.49
2023-08-27T07:04:03.733Z,16.59
2023-08-27T07:06:30.789Z,16.64
2023-08-27T07:08:57.369Z,16.71
2023-08-27T07:11:24.114Z,16.77
2023-08-27T07:13:50.854Z,16.83
2023-08-27T07:16:18.075Z,16.90
2023-08-27T07:18:44.898Z,16.94
2023-08-27T07:21:11.449Z,17.02
2023-08-27T07:23:38.173Z,17.14
2023-08-27T07:26:04.611Z,17.27
2023-08-27T07:28:31.967Z,17.45
2023-08-27T07:30:58.935Z,17.67
2023-08-27T07:33:25.738Z,17.74
2023-08-27T07:35:52.415Z,17.77
2023-08-27T07:38:19.145Z,17.83
2023-08-27T07:40:46.943Z,17.93
2023-08-27T07:43:13.753Z,18.02
2023-08-27T07:45:40.866Z,18.16
2023-08-27T07:50:34.294Z,18.31
2023-08-27T07:53:01.188Z,18.41
2023-08-27T07:55:27.727Z,18.49
2023-08-27T07:57:54.433Z,18.63
2023-08-27T08:00:22.624Z,18.77
2023-08-27T08:02:49.182Z,18.93
2023-08-27T08:05:16.023Z,19.04
2023-08-27T08:07:42.405Z,19.13
2023-08-27T08:10:11.369Z,19.24
2023-08-27T08:12:38.161Z,19.27
2023-08-27T08:15:05.017Z,19.36
2023-08-27T08:17:43.713Z,19.46
2023-08-27T08:20:13.249Z,19.52
2023-08-27T08:22:40.588Z,19.68
2023-08-27T08:25:08.083Z,19.76
2023-08-27T08:27:35.130Z,19.88
2023-08-27T08:30:02.965Z,19.94
2023-08-27T08:32:29.888Z,19.97
2023-08-27T08:34:56.584Z,20.00
2023-08-27T08:37:23.434Z,20.00
2023-08-27T08:39:50.158Z,20.04
2023-08-27T08:42:58.868Z,20.14
2023-08-27T08:45:34.740Z,20.19
2023-08-27T08:48:02.075Z,20.20
2023-08-27T08:50:31.816Z,20.16
2023-08-27T08:53:02.247Z,20.09
2023-08-27T08:55:33.454Z,20.06
2023-08-27T08:58:07.737Z,20.04
2023-08-27T09:00:36.093Z,20.04
2023-08-27T09:03:04.337Z,20.17
2023-08-27T09:05:33.910Z,20.29
2023-08-27T09:08:01.674Z,20.43
2023-08-27T09:10:29.368Z,20.54
2023-08-27T09:12:56.948Z,20.62
2023-08-27T09:15:23.977Z,20.73
2023-08-27T09:17:50.784Z,20.82
2023-08-27T09:20:17.678Z,20.96
2023-08-27T09:22:44.375Z,20.92
2023-08-27T09:25:10.930Z,20.90
2023-08-27T09:27:37.866Z,20.88
2023-08-27T09:30:05.446Z,20.81
2023-08-27T09:32:32.964Z,20.86
2023-08-27T09:34:59.753Z,20.80
2023-08-27T09:37:37.395Z,20.81
2023-08-27T09:40:11.089Z,20.83
2023-08-27T09:42:41.362Z,20.88
2023-08-27T09:45:08.184Z,20.80
2023-08-27T09:47:36.103Z,20.75
2023-08-27T09:50:16.472Z,20.67
2023-08-27T09:52:43.129Z,20.59
2023-08-27T09:55:17.185Z,20.57
2023-08-27T09:57:50.821Z,20.59
2023-08-27T10:00:19.312Z,20.56
2023-08-27T10:02:49.423Z,20.71
2023-08-27T10:05:17.112Z,20.79
2023-08-27T10:07:55.981Z,20.94
2023-08-27T10:10:23.060Z,21.01
2023-08-27T10:12:50.088Z,21.05
2023-08-27T10:15:18.282Z,21.14
2023-08-27T10:17:46.390Z,21.31
2023-08-27T10:20:13.164Z,21.35
2023-08-27T10:22:40.402Z,21.41
2023-08-27T10:25:09.733Z,21.60
2023-08-27T10:27:36.684Z,21.61
2023-08-27T10:30:04.401Z,21.63
2023-08-27T10:32:31.162Z,21.67
2023-08-27T10:34:57.553Z,21.72
2023-08-27T10:37:24.501Z,21.77
2023-08-27T10:39:52.806Z,21.65
2023-08-27T10:42:32.412Z,21.71
2023-08-27T10:45:15.484Z,21.71
2023-08-27T10:47:45.001Z,21.64
2023-08-27T10:50:19.020Z,21.72
2023-08-27T10:52:50.811Z,21.69
2023-08-27T10:55:21.529Z,21.88
2023-08-27T10:57:48.390Z,21.82
2023-08-27T11:00:15.330Z,21.88
2023-08-27T11:03:14.816Z,21.77
2023-08-27T11:05:41.690Z,21.96
2023-08-27T11:08:17.663Z,22.10
2023-08-27T11:10:44.650Z,22.12
2023-08-27T11:13:35.615Z,22.21
2023-08-27T11:16:17.768Z,22.21
2023-08-27T11:18:51.835Z,22.16
2023-08-27T11:21:27.735Z,22.21
2023-08-27T11:24:12.781Z,22.21
2023-08-27T11:26:45.564Z,22.07
2023-08-27T11:29:12.407Z,21.97
2023-08-27T11:31:40.698Z,21.86
2023-08-27T11:34:17.308Z,21.87
2023-08-27T11:36:48.291Z,21.71
2023-08-27T11:39:16.031Z,21.77
2023-08-27T11:41:43.997Z,21.88
2023-08-27T11:44:11.762Z,22.15
2023-08-27T11:46:39.831Z,22.22
2023-08-27T11:49:07.720Z,22.30
2023-08-27T11:51:34.899Z,22.29
2023-08-27T11:54:06.422Z,22.31
2023-08-27T11:56:35.399Z,22.13
2023-08-27T11:59:02.172Z,22.03
2023-08-27T12:01:29.518Z,21.86
2023-08-27T12:03:56.492Z,21.92
2023-08-27T12:06:26.580Z,21.83
2023-08-27T12:08:56.254Z,21.88
2023-08-27T12:11:29.439Z,21.93
2023-08-27T12:14:01.510Z,21.91
2023-08-27T12:16:32.447Z,21.82
2023-08-27T12:19:08.297Z,21.87
2023-08-27T12:21:47.186Z,21.97
2023-08-27T12:24:28.945Z,22.00
2023-08-27T12:27:05.929Z,21.97
2023-08-27T12:29:40.437Z,22.02
2023-08-27T12:32:15.252Z,21.97
2023-08-27T12:34:46.824Z,22.06
2023-08-27T12:37:14.228Z,21.88
2023-08-27T12:39:42.787Z,21.85
2023-08-27T12:42:13.526Z,21.82
2023-08-27T12:44:40.356Z,21.66
2023-08-27T12:47:09.005Z,21.56
2023-08-27T12:49:36.774Z,21.48
2023-08-27T12:52:03.947Z,21.37
2023-08-27T12:54:30.658Z,21.37
2023-08-27T12:56:57.223Z,21.30
2023-08-27T12:59:23.942Z,21.24
2023-08-27T13:01:50.706Z,21.23
2023-08-27T13:04:18.302Z,21.18
2023-08-27T13:06:45.392Z,21.19
2023-08-27T13:09:18.246Z,21.14
2023-08-27T13:11:46.077Z,21.18
2023-08-27T13:14:12.685Z,21.23
2023-08-27T13:16:39.309Z,21.23
2023-08-27T13:19:06.222Z,21.19
2023-08-27T13:21:33.313Z,21.15
2023-08-27T13:24:01.497Z,21.06
2023-08-27T13:26:28.537Z,21.08
2023-08-27T13:28:55.258Z,20.91
2023-08-27T13:31:21.998Z,20.88
2023-08-27T13:33:50.174Z,20.83
2023-08-27T13:36:18.900Z,20.92
2023-08-27T13:38:45.435Z,20.92
2023-08-27T13:41:12.051Z,20.99
2023-08-27T13:43:38.948Z,20.87
2023-08-27T13:46:05.800Z,20.96
2023-08-27T13:48:32.318Z,21.00
2023-08-27T13:50:59.095Z,20.95
2023-08-27T13:53:25.907Z,20.90
2023-08-27T13:55:53.482Z,20.90
2023-08-27T13:58:23.768Z,20.88
2023-08-27T14:00:53.362Z,20.94
2023-08-27T14:03:20.285Z,20.93
2023-08-27T14:05:47.136Z,21.03
2023-08-27T14:08:13.814Z,20.95
2023-08-27T14:10:40.556Z,20.82
2023-08-27T14:13:13.028Z,20.82
2023-08-27T14:15:39.807Z,20.93
2023-08-27T14:18:06.446Z,20.96
2023-08-27T14:20:33.729Z,20.90
2023-08-27T14:23:00.886Z,20.86
2023-08-27T14:25:27.630Z,20.82
2023-08-27T14:27:54.969Z,20.75
2023-08-27T14:30:21.433Z,20.75
2023-08-27T14:32:48.008Z,20.73
2023-08-27T14:35:15.179Z,20.72
2023-08-27T14:37:41.625Z,20.70
2023-08-27T14:40:09.087Z,20.61
2023-08-27T14:42:35.861Z,20.57
2023-08-27T14:45:04.667Z,20.58
2023-08-27T14:47:31.495Z,20.55
2023-08-27T14:49:58.936Z,20.52
2023-08-27T14:52:28.064Z,20.53
2023-08-27T14:54:54.596Z,20.43
2023-08-27T14:57:21.043Z,20.40
2023-08-27T14:59:47.759Z,20.36
2023-08-27T15:02:14.947Z,20.31
2023-08-27T15:04:43.126Z,20.16
2023-08-27T15:07:10.492Z,20.10
2023-08-27T15:09:37.550Z,19.98
2023-08-27T15:12:04.721Z,20.02
2023-08-27T15:14:31.261Z,19.96
2023-08-27T15:16:57.776Z,19.84
2023-08-27T15:19:24.442Z,19.82
2023-08-27T15:21:50.757Z,19.79
2023-08-27T15:24:17.186Z,19.77
2023-08-27T15:26:43.672Z,19.70
2023-08-27T15:29:12.762Z,19.67
2023-08-27T15:31:41.194Z,19.57
2023-08-27T15:34:07.697Z,19.49
2023-08-27T15:36:34.405Z,19.46
2023-08-27T15:39:01.469Z,19.40
2023-08-27T15:41:31.613Z,19.36
2023-08-27T15:44:00.374Z,19.28
2023-08-27T15:46:30.340Z,19.25
2023-08-27T15:48:57.717Z,19.22
2023-08-27T15:51:24.828Z,19.09
2023-08-27T15:53:53.928Z,19.03
2023-08-27T15:56:20.919Z,18.93
2023-08-27T15:58:49.146Z,18.87
2023-08-27T16:01:15.908Z,18.81
2023-08-27T16:03:42.368Z,18.72
2023-08-27T16:06:08.918Z,18.65
2023-08-27T16:08:35.446Z,18.62
2023-08-27T16:11:02.200Z,18.61
2023-08-27T16:13:28.699Z,18.60
2023-08-27T16:15:55.154Z,18.56
2023-08-27T16:18:21.629Z,18.55
2023-08-27T16:20:48.355Z,18.52
2023-08-27T16:23:15.033Z,18.50
2023-08-27T16:25:41.811Z,18.43
2023-08-27T16:28:08.362Z,18.42
2023-08-27T16:30:35.192Z,18.39
2023-08-27T16:33:02.193Z,18.31
2023-08-27T16:35:31.387Z,18.31
2023-08-27T16:37:57.890Z,18.27
2023-08-27T16:40:34.970Z,18.20
2023-08-27T16:43:02.837Z,18.19
2023-08-27T16:45:30.014Z,18.13
2023-08-27T16:47:56.625Z,18.10
2023-08-27T16:50:23.409Z,18.09
2023-08-27T16:52:50.122Z,18.07
2023-08-27T16:55:16.672Z,18.00
2023-08-27T16:57:43.152Z,17.95
2023-08-27T17:00:10.519Z,17.99
2023-08-27T17:02:39.439Z,17.98
2023-08-27T17:05:06.852Z,17.91
2023-08-27T17:07:33.375Z,17.88
2023-08-27T17:10:00.143Z,17.83
2023-08-27T17:12:26.843Z,17.84
2023-08-27T17:14:53.367Z,17.83
2023-08-27T17:17:20.161Z,17.80
2023-08-27T17:19:46.859Z,17.80
2023-08-27T17:22:15.687Z,17.71
2023-08-27T17:24:42.139Z,17.71
2023-08-27T17:27:08.609Z,17.70
2023-08-27T17:29:37.784Z,17.72
2023-08-27T17:32:04.528Z,17.69
2023-08-27T17:34:32.103Z,17.64
2023-08-27T17:37:01.204Z,17.60
2023-08-27T17:39:28.029Z,17.54
2023-08-27T17:41:55.734Z,17.48
2023-08-27T17:44:22.200Z,17.50
2023-08-27T17:46:49.024Z,17.48
2023-08-27T17:49:15.379Z,17.43
2023-08-27T17:51:42.080Z,17.39
2023-08-27T17:54:08.568Z,17.37
2023-08-27T17:56:35.014Z,17.35
2023-08-27T17:59:01.685Z,17.31
2023-08-27T18:01:28.406Z,17.31
2023-08-27T18:03:55.157Z,17.27
2023-08-27T18:06:21.586Z,17.24
2023-08-27T18:08:48.304Z,17.24
2023-08-27T18:11:15.042Z,17.19
2023-08-27T18:13:41.752Z,17.23
2023-08-27T18:16:08.522Z,17.14
2023-08-27T18:18:35.213Z,17.12
2023-08-27T18:21:02.028Z,17.10
2023-08-27T18:23:28.548Z,17.05
2023-08-27T18:25:54.998Z,17.04
2023-08-27T18:28:21.432Z,17.00
2023-08-27T18:30:47.981Z,16.98
2023-08-27T18:33:14.833Z,16.99
2023-08-27T18:35:41.441Z,16.98
2023-08-27T18:38:08.283Z,16.97
2023-08-27T18:40:34.990Z,16.96
2023-08-27T18:43:01.704Z,16.91
2023-08-27T18:45:31.349Z,16.89
2023-08-27T18:47:59.919Z,16.88
2023-08-27T18:50:27.097Z,16.84
2023-08-27T18:52:53.896Z,16.82
2023-08-27T18:55:20.258Z,16.81
2023-08-27T18:57:47.030Z,16.79
2023-08-27T19:00:13.823Z,16.75
2023-08-27T19:02:40.334Z,16.75
2023-08-27T19:05:07.118Z,16.74
2023-08-27T19:07:33.793Z,16.71
2023-08-27T19:10:00.542Z,16.72
2023-08-27T19:12:28.329Z,16.70
2023-08-27T19:14:55.137Z,16.68
2023-08-27T19:17:21.956Z,16.65
2023-08-27T19:19:48.618Z,16.66
2023-08-27T19:22:15.345Z,16.67
2023-08-27T19:24:44.835Z,16.62
2023-08-27T19:27:11.683Z,16.65
2023-08-27T19:29:38.214Z,16.61
2023-08-27T19:32:04.740Z,16.63
2023-08-27T19:34:31.499Z,16.64
2023-08-27T19:36:58.230Z,16.61
2023-08-27T19:39:24.983Z,16.65
2023-08-27T19:41:51.446Z,16.60
2023-08-27T19:44:18.193Z,16.58
2023-08-27T19:46:44.968Z,16.55
2023-08-27T19:49:11.405Z,16.55
2023-08-27T19:51:37.843Z,16.59
2023-08-27T19:54:05.076Z,16.56
2023-08-27T19:56:31.899Z,16.58
2023-08-27T19:58:58.421Z,16.57
2023-08-27T20:01:25.249Z,16.57
2023-08-27T20:03:51.987Z,16.53
2023-08-27T20:06:18.776Z,16.54
2023-08-27T20:08:45.489Z,16.55
2023-08-27T20:11:12.211Z,16.54
2023-08-27T20:13:39.358Z,16.53
2023-08-27T20:16:06.222Z,16.53
2023-08-27T20:18:32.795Z,16.54
2023-08-27T20:20:59.242Z,16.55
2023-08-27T20:23:27.165Z,16.55
2023-08-27T20:25:53.752Z,16.52
2023-08-27T20:28:20.501Z,16.54
2023-08-27T20:30:47.887Z,16.53
2023-08-27T20:33:15.232Z,16.53
2023-08-27T20:35:41.785Z,16.51
2023-08-27T20:38:08.559Z,16.52
2023-08-27T20:40:39.460Z,16.50
2023-08-27T20:43:08.852Z,16.47
2023-08-27T20:45:35.566Z,16.47
2023-08-27T20:48:04.305Z,16.47
2023-08-27T20:50:31.283Z,16.50
2023-08-27T20:52:57.932Z,16.49
2023-08-27T20:55:24.726Z,16.51
2023-08-27T20:57:51.504Z,16.52
2023-08-27T21:00:18.577Z,16.52
2023-08-27T21:02:45.342Z,16.50
2023-08-27T21:05:13.139Z,16.50
2023-08-27T21:07:39.954Z,16.52
2023-08-27T21:10:07.480Z,16.53
2023-08-27T21:12:34.602Z,16.52
2023-08-27T21:15:01.434Z,16.52
2023-08-27T21:17:28.225Z,16.51
2023-08-27T21:19:55.031Z,16.51
2023-08-27T21:22:21.407Z,16.52
2023-08-27T21:24:48.220Z,16.51
2023-08-27T21:27:15.822Z,16.50
2023-08-27T21:29:42.407Z,16.47
2023-08-27T21:32:09.229Z,16.50
2023-08-27T21:34:35.605Z,16.50
2023-08-27T21:37:02.339Z,16.50
2023-08-27T21:39:29.066Z,16.49
2023-08-27T21:41:55.678Z,16.47
2023-08-27T21:44:25.188Z,16.50
2023-08-27T21:46:52.861Z,16.50
2023-08-27T21:49:19.968Z,16.50
2023-08-27T21:51:46.452Z,16.51
2023-08-27T21:54:14.461Z,16.60
2023-08-27T21:56:41.211Z,16.55
2023-08-27T21:59:07.987Z,16.54
2023-08-27T22:01:34.667Z,16.54
2023-08-27T22:04:01.571Z,16.54
2023-08-27T22:06:28.797Z,16.54
2023-08-27T22:08:55.572Z,16.57
2023-08-27T22:11:22.257Z,16.51
2023-08-27T22:13:48.950Z,16.51
2023-08-27T22:16:15.675Z,16.52
2023-08-27T22:18:42.084Z,16.51
2023-08-27T22:21:08.965Z,16.49
2023-08-27T22:23:35.481Z,16.50
2023-08-27T22:26:01.938Z,16.47
2023-08-27T22:28:28.699Z,16.45
2023-08-27T22:30:55.487Z,16.45
2023-08-27T22:33:21.905Z,16.43
2023-08-27T22:35:49.638Z,16.42
2023-08-27T22:38:16.383Z,16.42
2023-08-27T22:40:43.115Z,16.43
2023-08-27T22:43:09.591Z,16.42
2023-08-27T22:45:36.834Z,16.42
2023-08-27T22:48:03.794Z,16.40
2023-08-27T22:50:30.580Z,16.39
2023-08-27T22:53:00.023Z,16.36
2023-08-27T22:55:28.482Z,16.36
2023-08-27T22:57:56.458Z,16.36
2023-08-27T23:00:23.451Z,16.35
2023-08-27T23:02:50.369Z,16.33
2023-08-27T23:05:16.919Z,16.30
2023-08-27T23:07:43.586Z,16.27
2023-08-27T23:10:14.077Z,16.23
2023-08-27T23:12:40.566Z,16.24
2023-08-27T23:15:09.200Z,16.21
2023-08-27T23:17:35.981Z,16.20
2023-08-27T23:20:02.516Z,16.18
2023-08-27T23:22:30.802Z,16.14
2023-08-27T23:24:59.664Z,16.11
2023-08-27T23:27:27.935Z,16.11
2023-08-27T23:29:54.677Z,16.03
2023-08-27T23:32:21.396Z,16.03
2023-08-27T23:34:48.246Z,16.00
2023-08-27T23:37:15.601Z,15.96
2023-08-27T23:39:42.038Z,15.92
2023-08-27T23:42:10.944Z,15.89
2023-08-27T23:44:41.550Z,15.87
2023-08-27T23:47:12.675Z,15.85
2023-08-27T23:49:39.397Z,15.81
2023-08-27T23:52:08.022Z,15.78
2023-08-27T23:54:34.753Z,15.74
2023-08-27T23:57:04.038Z,15.69
2023-08-27T23:59:30.606Z,15.67
